createdAt,value
2019-02-14T05:00:50.134Z,13.07
2019-02-14T05:03:25.750Z,12.57
2019-02-14T05:06:01.640Z,12.60
2019-02-14T05:08:36.875Z,12.70
2019-02-14T05:11:11.938Z,13.10
2019-02-14T05:13:46.903Z,12.87
2019-02-14T06:02:05.714Z,12.63
2019-02-14T06:04:40.658Z,13.93
2019-02-14T06:07:16.022Z,13.77
2019-02-14T06:09:51.139Z,13.63
2019-02-14T06:12:26.110Z,13.80
2019-02-14T06:15:01.331Z,13.50
2019-02-14T07:00:14.758Z,12.57
2019-02-14T07:02:49.779Z,12.10
2019-02-14T07:05:24.867Z,11.53
2019-02-14T07:07:59.791Z,12.20
2019-02-14T07:10:35.187Z,12.50
2019-02-14T07:13:10.336Z,13.73
2019-02-14T08:01:13.647Z,9.80
2019-02-14T08:03:36.087Z,10.50
2019-02-14T08:05:58.767Z,9.60
2019-02-14T08:08:21.210Z,9.90
2019-02-14T08:11:03.195Z,10.23
2019-02-14T08:13:37.801Z,9.67
2019-02-14T09:01:42.374Z,12.60
2019-02-14T09:04:04.928Z,12.70
2019-02-14T09:06:27.354Z,13.13
2019-02-14T09:08:49.914Z,14.20
2019-02-14T09:11:12.422Z,13.70
2019-02-14T09:13:34.949Z,19.53
2019-02-14T10:01:18.115Z,10.75
2019-02-14T10:03:41.913Z,11.38
2019-02-14T10:06:04.432Z,12.85
2019-02-14T10:08:26.959Z,14.10
2019-02-14T10:10:49.370Z,13.65
2019-02-14T10:13:11.890Z,12.60
2019-02-14T11:00:45.156Z,10.48
2019-02-14T11:03:07.510Z,11.18
2019-02-14T11:05:29.970Z,12.93
2019-02-14T11:07:52.475Z,11.63
2019-02-14T11:10:27.059Z,9.43
2019-02-14T11:13:02.178Z,8.70
2019-02-14T11:51:53.423Z,8.80
2019-02-14T11:54:28.306Z,9.20
2019-02-14T11:56:51.046Z,9.93
2019-02-14T11:59:13.578Z,9.83
2019-02-14T12:01:36.000Z,9.83
2019-02-14T12:03:58.407Z,10.10
2019-02-14T12:06:33.724Z,9.90
2019-02-14T12:09:00.209Z,10.23
2019-02-14T12:11:20.595Z,10.27
2019-02-14T12:13:43.139Z,9.50
2019-02-14T12:16:05.569Z,9.00
2019-02-14T12:18:27.987Z,9.63
2019-02-14T12:20:50.437Z,9.17
2019-02-14T12:23:12.850Z,8.90
2019-02-14T12:25:35.275Z,9.40
2019-02-14T12:27:57.874Z,10.77
2019-02-14T12:30:21.023Z,10.87
2019-02-14T12:32:43.530Z,9.33
2019-02-14T12:35:06.094Z,9.20
2019-02-14T12:37:28.543Z,8.73
2019-02-14T12:39:50.968Z,8.20
2019-02-14T12:42:13.402Z,9.20
2019-02-14T12:44:36.021Z,8.63
2019-02-14T12:46:58.693Z,9.40
2019-02-14T12:49:21.150Z,9.87
2019-02-14T12:51:43.619Z,10.20
2019-02-14T12:54:06.074Z,10.17
2019-02-14T12:56:28.563Z,9.60
2019-02-14T12:59:10.538Z,9.43
2019-02-14T13:01:32.971Z,9.37
2019-02-14T14:01:15.803Z,9.47
2019-02-14T14:03:38.340Z,9.43
2019-02-14T14:06:00.754Z,9.63
2019-02-14T14:08:23.207Z,9.83
2019-02-14T14:10:45.611Z,9.33
2019-02-14T14:13:08.049Z,9.80
2019-02-14T15:04:09.281Z,10.23
2019-02-14T15:06:45.758Z,9.30
2019-02-14T15:09:20.807Z,9.53
2019-02-14T15:11:56.142Z,9.50
2019-02-14T15:14:31.106Z,9.50
2019-02-14T16:01:19.054Z,5.90
2019-02-14T16:03:42.730Z,5.97
2019-02-14T16:06:06.178Z,6.87
2019-02-14T16:08:28.834Z,7.73
2019-02-14T16:10:54.101Z,6.83
2019-02-14T16:13:15.683Z,6.33
2019-02-14T16:21:27.757Z,15.27
2019-02-14T16:23:53.025Z,15.97
2019-02-14T16:26:17.116Z,12.37
2019-02-14T16:28:39.880Z,9.63
2019-02-14T16:31:02.391Z,9.03
2019-02-14T16:33:24.919Z,9.53
2019-02-14T16:35:47.458Z,9.23
2019-02-14T16:38:11.781Z,10.13
2019-02-14T16:40:38.507Z,9.67
2019-02-14T16:42:58.838Z,9.97
2019-02-14T16:45:21.270Z,9.67
2019-02-14T16:47:43.687Z,9.33
2019-02-14T16:50:06.838Z,10.57
2019-02-14T16:52:29.425Z,19.07
2019-02-14T16:54:51.921Z,19.07
2019-02-14T16:57:14.366Z,12.33
2019-02-14T16:59:36.886Z,12.53
2019-02-14T17:01:59.474Z,13.67
2019-02-14T17:04:21.915Z,11.40
2019-02-14T17:06:44.382Z,8.33
2019-02-14T17:09:06.914Z,7.07
2019-02-14T17:11:31.279Z,6.57
2019-02-14T17:13:53.786Z,7.80
2019-02-14T18:02:40.843Z,11.80
2019-02-14T18:05:03.500Z,12.97
2019-02-14T18:07:26.110Z,13.27
2019-02-14T18:09:48.633Z,12.30
2019-02-14T18:12:11.047Z,12.23
2019-02-14T18:14:33.462Z,11.83
2019-02-14T19:00:55.195Z,15.50
2019-02-14T19:03:17.727Z,14.73
2019-02-14T19:05:40.269Z,13.90
2019-02-14T19:08:22.367Z,14.43
2019-02-14T19:10:57.451Z,14.20
2019-02-14T19:13:33.001Z,14.20
2019-02-14T20:00:19.738Z,18.67
2019-02-14T20:03:01.730Z,18.10
2019-02-14T20:05:36.963Z,15.83
2019-02-14T20:08:12.046Z,18.50
2019-02-14T20:10:47.034Z,18.10
2019-02-14T20:13:22.123Z,17.70
2019-02-14T21:01:34.999Z,19.23
2019-02-14T21:03:57.554Z,17.77
2019-02-14T21:06:20.100Z,17.93
2019-02-14T21:08:42.547Z,19.40
2019-02-14T21:11:24.432Z,19.30
2019-02-14T21:13:59.209Z,19.37
